首页
METAR-TAF:

METAR-TAF

机场 :

多倫多皮爾遜國際機場

多伦多, 安大略省, 加拿大

纬度: 43-40N, 经度: 079-38W, 海拔: 173米

当前天气观测

该预报发布于1小时和5分钟前的13:00 UTC
风速7节,风向南转南东
温度 -6°C
湿度 79%
气压 1031 hPa
能見度: 19.3公里
阴天层高于3300英尺
小雪

METAR: CYYZ 211300Z 15007KT 12SM -SN OVC033 M06/M09 A3046 RMK SC8 SLP328

时间: 09:05 (14:05 UTC)

预报

该预报发布于2小时和23分钟前的11:42 UTC
预报有效从21日的 12点(UTC)到 22日的 18点(UTC)
风速8节,风向东转东北
能見度: 10公里
阴天层高于4000英尺
成为
从 21日的 13点(UTC)到 21日的 14点(UTC)
风速3节,风向多变
从 21日的 1500点(UTC)
风速10节,风向西,有时为20节阵风
能見度: 10公里
散云层高于3000英尺
多云层高于14000英尺
从 21日的 1800点(UTC)
风速10节,风向西,有时为20节阵风
能見度: 10公里
多云层高于3000英尺
多云层高于12000英尺
成为
从 22日的 00点(UTC)到 22日的 02点(UTC)
风速12节,风向西转西南
从 22日的 0600点(UTC)
风速12节,风向西南
能見度: 10公里
多云层高于1500英尺
从 22日的 1000点(UTC)
风速12节,风向西转西南
能見度: 10公里
少量云层高于2000英尺
成为
从 22日的 14点(UTC)到 22日的 16点(UTC)
风速12节,风向西南,有时为22节阵风

TAF: CYYZ 211142Z 2112/2218 07008KT P6SM OVC040 BECMG 2113/2114 VRB03KT FM211500 26010G20KT P6SM SCT030 BKN140 FM211800 26010G20KT P6SM BKN030 BKN120 BECMG 2200/2202 25012KT FM220600 23012KT P6SM BKN015 FM221000 24012KT P6SM FEW020 BECMG 2214/2216 23012G22KT RMK NXT FCST BY 211500Z

超过4000个机场的气象观测和天气预报(METAR&TAF报告)。

可查询的气象台以黄色和红色小点在地图上表示。

将鼠标移到小点上方,可查看气象台名称。

然后点击查看天气观测和预报。

如需切换地图:点击带黑十字的绿色按钮放大地图;点击带横线的绿色按钮缩小地图;或者点击绿色箭头查看邻近地区的地图。


METAR-TAF: